Time;durP1;ratioP1;P1;durP2;ratioP2;P2;SDS_P1;SDS_P2;PMS_P1;PMS_P2;Temp;Humidity;BMP_temperature;BMP_pressure;BME280_temperature;BME280_humidity;BME280_pressure;Samples;Min_cycle;Max_cycle;Signal;HPM_P1;HPM_P2
2021/05/30 00:00:17;;;;;;;15.35;11.52;;;;;;;15.93;52.80;102730.06;4949995;28;119173;-65
2021/05/30 00:02:44;;;;;;;14.25;11.07;;;;;;;15.91;52.69;102734.59;4950286;28;124707;-65
2021/05/30 00:05:12;;;;;;;13.27;10.35;;;;;;;15.89;52.66;102731.13;4947489;28;123952;-65
2021/05/30 00:07:39;;;;;;;13.98;11.02;;;;;;;15.88;52.57;102729.34;4949434;28;119485;-65
2021/05/30 00:10:08;;;;;;;15.38;11.32;;;;;;;15.87;52.61;102732.97;4949453;28;118315;-65
2021/05/30 00:12:36;;;;;;;15.95;10.90;;;;;;;15.84;52.51;102733.09;4949235;28;124497;-65
2021/05/30 00:15:05;;;;;;;14.50;11.00;;;;;;;15.80;52.63;102736.78;4950472;28;124680;-65
2021/05/30 00:17:32;;;;;;;15.55;11.32;;;;;;;15.74;52.70;102733.41;4947168;28;119517;-65
2021/05/30 00:20:00;;;;;;;13.35;10.98;;;;;;;15.70;52.59;102737.09;4945398;28;119462;-65
2021/05/30 00:22:27;;;;;;;13.73;11.13;;;;;;;15.67;52.85;102737.22;4947798;28;122973;-65
2021/05/30 00:24:54;;;;;;;15.43;11.77;;;;;;;15.60;52.91;102730.34;4947403;28;123684;-66
2021/05/30 00:27:22;;;;;;;16.52;12.05;;;;;;;15.56;52.94;102731.41;4948955;28;120223;-66
2021/05/30 00:29:49;;;;;;;16.58;12.20;;;;;;;15.50;53.10;102735.16;4947330;28;119462;-65
2021/05/30 00:32:16;;;;;;;16.98;12.50;;;;;;;15.44;53.20;102740.69;4959681;28;124208;-66
2021/05/30 00:34:43;;;;;;;14.98;11.98;;;;;;;15.38;53.40;102741.78;4948803;28;123735;-66
2021/05/30 00:37:10;;;;;;;15.70;12.10;;;;;;;15.31;53.56;102737.59;4947855;28;119210;-66
2021/05/30 00:39:37;;;;;;;15.77;12.60;;;;;;;15.26;53.50;102736.88;4962039;28;119065;-66
2021/05/30 00:42:05;;;;;;;17.80;12.13;;;;;;;15.21;53.80;102733.50;4949099;28;124237;-65
2021/05/30 00:44:33;;;;;;;16.95;12.35;;;;;;;15.15;53.99;102733.72;4941696;28;123941;-65
2021/05/30 00:47:00;;;;;;;18.23;13.25;;;;;;;15.09;54.14;102739.25;4946268;28;119972;-65
2021/05/30 00:49:28;;;;;;;14.60;11.82;;;;;;;15.05;54.03;102732.25;4946461;28;119170;-65
2021/05/30 00:51:55;;;;;;;17.42;12.18;;;;;;;15.01;54.13;102735.97;4948672;28;124122;-66
2021/05/30 00:54:23;;;;;;;16.10;12.75;;;;;;;14.96;54.32;102745.00;4948888;28;123748;-65
2021/05/30 00:56:50;;;;;;;17.13;12.95;;;;;;;14.93;54.40;102737.06;4929991;28;118109;-66
2021/05/30 00:59:18;;;;;;;18.95;13.48;;;;;;;14.91;54.39;102740.72;4943221;28;120459;-66
2021/05/30 01:01:47;;;;;;;17.58;13.82;;;;;;;14.89;54.61;102742.59;4947869;28;124483;-66
2021/05/30 01:04:14;;;;;;;18.85;13.48;;;;;;;14.87;54.47;102750.63;4947320;28;124047;-65
2021/05/30 01:06:42;;;;;;;19.20;13.55;;;;;;;14.84;54.30;102740.03;4945238;28;120419;-66
2021/05/30 01:09:09;;;;;;;17.00;13.88;;;;;;;14.81;54.58;102742.84;4948462;28;120433;-65
2021/05/30 01:11:37;;;;;;;20.90;15.02;;;;;;;14.78;54.74;102745.59;4946352;28;124129;-65
2021/05/30 01:14:07;;;;;;;19.17;14.23;;;;;;;14.72;54.82;102740.47;4945180;28;122905;-65
2021/05/30 01:16:35;;;;;;;18.92;14.88;;;;;;;14.66;54.87;102746.00;4947606;28;119134;-65
2021/05/30 01:19:05;;;;;;;18.08;14.40;;;;;;;14.59;55.13;102740.84;4946044;28;119409;-65
2021/05/30 01:21:32;;;;;;;18.00;13.98;;;;;;;14.56;54.90;102748.91;4947538;28;124051;-65
2021/05/30 01:23:59;;;;;;;20.48;14.38;;;;;;;14.53;55.07;102746.34;4946835;28;124001;-66
2021/05/30 01:26:26;;;;;;;21.95;15.50;;;;;;;14.50;55.12;102746.41;4947620;28;119551;-66
2021/05/30 01:28:53;;;;;;;20.63;15.27;;;;;;;14.48;55.12;102742.06;4947528;28;118336;-65
2021/05/30 01:31:21;;;;;;;19.38;14.45;;;;;;;14.46;55.30;102744.78;4946085;28;124353;-66
2021/05/30 01:33:49;;;;;;;20.60;14.35;;;;;;;14.42;55.29;102748.47;4946378;28;123659;-66
2021/05/30 01:36:16;;;;;;;16.80;14.10;;;;;;;14.40;55.10;102740.50;4947527;28;118471;-65
2021/05/30 01:38:43;;;;;;;21.50;16.17;;;;;;;14.36;55.30;102743.31;4946037;28;119753;-65
2021/05/30 01:41:11;;;;;;;17.77;15.13;;;;;;;14.30;55.35;102732.84;4946204;28;124090;-65
2021/05/30 01:43:38;;;;;;;20.40;15.57;;;;;;;14.23;55.42;102731.28;4945508;28;124141;-65
2021/05/30 01:46:05;;;;;;;21.23;16.45;;;;;;;14.19;55.58;102731.38;4946538;28;119307;-65
2021/05/30 01:48:33;;;;;;;19.75;14.88;;;;;;;14.14;55.46;102727.97;4946777;28;119382;-65
2021/05/30 01:51:00;;;;;;;21.15;15.57;;;;;;;14.10;55.54;102720.97;4946007;28;123994;-65
2021/05/30 01:53:35;;;;;;;20.58;15.65;;;;;;;14.06;55.42;102724.66;4945992;28;124453;-65
2021/05/30 01:58:30;;;;;;;22.13;15.82;;;;;;;14.00;55.68;102724.84;4947431;28;120070;-64
2021/05/30 02:01:00;;;;;;;21.48;16.65;;;;;;;13.95;55.53;102726.75;4966799;23;123293;-64
2021/05/30 02:03:27;;;;;;;19.23;15.38;;;;;;;13.92;55.59;102726.84;4946684;28;124588;-64
2021/05/30 02:05:58;;;;;;;21.48;16.20;;;;;;;13.90;55.88;102734.00;4961629;28;119594;-65
2021/05/30 02:08:27;;;;;;;22.00;15.95;;;;;;;13.83;55.61;102728.88;4947373;28;119031;-65
2021/05/30 02:10:54;;;;;;;22.17;16.35;;;;;;;13.82;55.73;102721.81;4947891;28;124232;-65
2021/05/30 02:13:24;;;;;;;25.25;16.98;;;;;;;13.79;55.73;102723.69;4948598;28;124248;-65
2021/05/30 02:15:52;;;;;;;21.00;15.57;;;;;;;13.77;55.64;102718.41;4949325;28;119669;-65
2021/05/30 02:18:19;;;;;;;21.83;15.90;;;;;;;13.76;55.62;102721.97;4949602;28;119349;-65
2021/05/30 02:20:46;;;;;;;22.95;16.83;;;;;;;13.76;55.71;102721.97;4951147;28;124129;-65
2021/05/30 02:23:15;;;;;;;22.00;16.42;;;;;;;13.76;55.81;102721.97;4951346;28;124237;-64
2021/05/30 02:25:42;;;;;;;24.17;16.58;;;;;;;13.76;55.49;102721.09;4950185;28;119466;-64
2021/05/30 02:28:09;;;;;;;22.60;16.80;;;;;;;13.73;55.48;102722.06;4954800;28;118988;-64
2021/05/30 02:30:37;;;;;;;27.08;16.48;;;;;;;13.71;55.48;102718.56;4949376;28;124836;-64
2021/05/30 02:33:04;;;;;;;22.73;16.65;;;;;;;13.68;55.50;102718.66;4951766;28;124538;-64
2021/05/30 02:35:31;;;;;;;28.90;18.48;;;;;;;13.64;55.67;102717.00;4951214;28;119119;-64
2021/05/30 02:37:59;;;;;;;25.45;17.13;;;;;;;13.59;55.45;102713.59;4945758;28;118028;-64
2021/05/30 02:40:26;;;;;;;25.23;17.80;;;;;;;13.57;55.57;102720.75;4951138;28;124180;-64
2021/05/30 02:42:53;;;;;;;23.85;16.88;;;;;;;13.51;55.57;102718.25;4952903;28;124379;-64
2021/05/30 02:45:20;;;;;;;23.27;16.60;;;;;;;13.46;55.55;102723.69;4945729;28;120744;-64
2021/05/30 02:47:47;;;;;;;26.02;17.75;;;;;;;13.44;55.62;102721.06;4951300;28;120161;-64
2021/05/30 02:50:16;;;;;;;25.92;17.35;;;;;;;13.42;55.73;102733.53;4949942;28;124056;-64
2021/05/30 02:52:43;;;;;;;22.05;16.55;;;;;;;13.42;55.47;102722.88;4950511;28;123039;-64
2021/05/30 02:55:10;;;;;;;22.52;16.30;;;;;;;13.41;55.38;102726.47;4950263;28;119853;-64
2021/05/30 02:57:38;;;;;;;23.90;16.50;;;;;;;13.39;55.49;102733.63;4950465;28;119784;-64
2021/05/30 03:00:08;;;;;;;23.13;17.30;;;;;;;13.36;55.39;102723.06;4949753;28;98460;-64
2021/05/30 03:02:35;;;;;;;24.50;17.85;;;;;;;13.36;55.41;102731.03;4950553;28;124161;-64
2021/05/30 03:05:05;;;;;;;23.90;17.58;;;;;;;13.34;55.43;102730.22;4951222;28;119176;-64
2021/05/30 03:07:32;;;;;;;25.63;18.48;;;;;;;13.33;55.46;102727.59;4951350;28;118034;-64
2021/05/30 03:09:59;;;;;;;25.13;18.23;;;;;;;13.31;55.23;102724.97;4944627;28;123520;-64
2021/05/30 03:12:26;;;;;;;24.65;18.05;;;;;;;13.30;55.18;102723.22;4950597;28;124133;-64
2021/05/30 03:14:54;;;;;;;27.75;19.20;;;;;;;13.27;55.37;102725.94;4948758;28;119411;-64
2021/05/30 03:17:21;;;;;;;28.95;19.17;;;;;;;13.23;55.61;102732.25;4949718;28;119140;-64
2021/05/30 03:19:48;;;;;;;26.77;19.02;;;;;;;13.19;55.62;102725.25;4947130;28;124472;-64
2021/05/30 03:22:15;;;;;;;25.45;19.35;;;;;;;13.14;55.55;102716.53;4947869;28;122825;-64
2021/05/30 03:24:42;;;;;;;29.67;19.73;;;;;;;13.10;55.57;102725.50;4947967;28;119032;-64
2021/05/30 03:27:09;;;;;;;29.90;18.95;;;;;;;13.03;55.73;102720.34;4948467;28;119509;-64
2021/05/30 03:29:36;;;;;;;28.65;19.17;;;;;;;12.99;55.69;102729.28;4947955;28;124052;-64
2021/05/30 03:32:04;;;;;;;27.02;18.77;;;;;;;12.95;55.81;102727.63;4953757;28;126620;-64
2021/05/30 03:34:31;;;;;;;25.55;18.77;;;;;;;12.92;55.84;102738.34;4949489;28;119509;-64
2021/05/30 03:36:59;;;;;;;28.00;19.92;;;;;;;12.91;55.78;102735.72;4949794;28;120509;-64
2021/05/30 03:39:28;;;;;;;29.10;20.42;;;;;;;12.88;55.93;102736.66;4951366;28;124083;-64
2021/05/30 03:41:56;;;;;;;27.95;19.02;;;;;;;12.85;55.92;102742.06;4934599;28;123077;-64
2021/05/30 03:44:23;;;;;;;27.27;19.20;;;;;;;12.81;55.85;102740.41;4952046;28;120242;-64
2021/05/30 03:46:50;;;;;;;29.45;19.17;;;;;;;12.80;56.17;102743.94;4949586;28;119234;-64
2021/05/30 03:49:17;;;;;;;27.42;19.42;;;;;;;12.76;56.26;102742.28;4949528;28;124152;-64
2021/05/30 03:51:44;;;;;;;29.05;19.35;;;;;;;12.74;56.10;102744.97;4951808;28;122740;-64
2021/05/30 03:54:11;;;;;;;26.95;19.23;;;;;;;12.74;56.31;102744.09;4949997;28;119236;-64
2021/05/30 03:56:39;;;;;;;29.40;20.25;;;;;;;12.75;56.55;102753.81;4948863;28;119098;-64
2021/05/30 03:59:06;;;;;;;27.88;19.13;;;;;;;12.75;56.32;102741.41;4948037;28;124263;-64
2021/05/30 04:01:34;;;;;;;30.95;19.23;;;;;;;12.76;56.38;102742.28;4950705;28;124716;-64
2021/05/30 04:04:02;;;;;;;30.00;18.77;;;;;;;12.76;56.32;102734.31;4949259;28;119756;-64
2021/05/30 04:06:29;;;;;;;26.00;18.08;;;;;;;12.76;56.35;102736.97;4950135;28;119099;-64
2021/05/30 04:08:56;;;;;;;27.08;19.55;;;;;;;12.76;56.28;102742.28;4947963;28;123854;-64
2021/05/30 04:11:23;;;;;;;27.10;18.98;;;;;;;12.74;56.44;102744.09;4948926;28;123709;-64
2021/05/30 04:13:51;;;;;;;26.30;19.30;;;;;;;12.75;56.43;102745.84;4951327;28;119297;-64
2021/05/30 04:16:18;;;;;;;31.23;19.65;;;;;;;12.74;56.56;102744.09;4953271;28;119832;-63
2021/05/30 04:18:45;;;;;;;30.33;19.75;;;;;;;12.75;56.44;102740.53;4949752;28;124769;-63
2021/05/30 04:21:12;;;;;;;30.23;20.33;;;;;;;12.75;56.64;102740.53;4950384;28;124406;-63
2021/05/30 04:23:40;;;;;;;28.20;19.00;;;;;;;12.74;56.64;102737.00;4948696;28;119327;-64
2021/05/30 04:26:07;;;;;;;29.33;19.45;;;;;;;12.74;56.88;102738.78;4949147;28;119826;-64
2021/05/30 04:28:34;;;;;;;28.50;19.35;;;;;;;12.74;56.91;102738.78;4950797;28;123241;-64
2021/05/30 04:31:02;;;;;;;29.33;19.17;;;;;;;12.76;56.77;102736.97;4950015;28;124625;-64
2021/05/30 04:33:29;;;;;;;30.92;19.75;;;;;;;12.77;56.82;102734.28;4951272;28;119399;-65
2021/05/30 04:35:56;;;;;;;30.70;19.80;;;;;;;12.78;56.95;102735.13;4950484;28;119954;-63
2021/05/30 04:38:23;;;;;;;26.35;19.17;;;;;;;12.79;57.11;102736.88;4948064;28;124096;-64
2021/05/30 04:40:50;;;;;;;29.35;20.10;;;;;;;12.78;57.29;102729.81;4949135;28;123949;-64
2021/05/30 04:43:18;;;;;;;29.95;20.10;;;;;;;12.77;57.11;102734.28;4949365;28;120566;-64
2021/05/30 04:45:45;;;;;;;30.08;19.92;;;;;;;12.78;57.22;102740.47;4950037;28;119157;-64
2021/05/30 04:48:12;;;;;;;28.20;19.58;;;;;;;12.81;57.36;102745.72;4948246;28;123954;-64
2021/05/30 04:50:39;;;;;;;31.48;19.63;;;;;;;12.83;57.37;102744.75;4947205;28;124023;-64
2021/05/30 04:53:06;;;;;;;28.38;19.90;;;;;;;12.86;57.65;102743.78;4947408;28;119198;-64
2021/05/30 04:55:33;;;;;;;28.80;19.27;;;;;;;12.88;57.94;102747.28;4948556;28;118974;-64
2021/05/30 04:58:02;;;;;;;31.33;19.58;;;;;;;12.91;57.89;102752.53;4946781;28;123887;-64
2021/05/30 05:00:29;;;;;;;30.48;20.92;;;;;;;12.93;58.00;102755.16;4948906;28;124022;-64
2021/05/30 05:02:56;;;;;;;30.30;20.17;;;;;;;12.93;58.05;102756.03;4961008;28;119390;-64
2021/05/30 05:05:27;;;;;;;29.77;20.15;;;;;;;12.95;58.08;102759.53;4949111;28;119774;-64
2021/05/30 05:07:55;;;;;;;28.38;19.17;;;;;;;12.96;58.01;102753.31;4947074;28;124388;-64
2021/05/30 05:10:22;;;;;;;28.08;19.75;;;;;;;12.98;57.98;102759.47;4949251;28;123562;-64
2021/05/30 05:12:49;;;;;;;28.35;19.80;;;;;;;13.01;57.93;102759.38;4946486;28;120588;-64
2021/05/30 05:15:16;;;;;;;27.83;19.48;;;;;;;13.02;57.96;102758.47;4949497;28;119810;-64
2021/05/30 05:17:43;;;;;;;28.13;19.42;;;;;;;13.08;58.07;102759.25;4947363;28;124000;-63
2021/05/30 05:20:11;;;;;;;28.58;18.67;;;;;;;13.12;57.93;102760.91;4946996;28;124120;-64
2021/05/30 05:22:38;;;;;;;29.13;19.73;;;;;;;13.16;57.91;102762.56;4949360;28;118121;-64
2021/05/30 05:25:06;;;;;;;26.23;18.83;;;;;;;13.19;57.94;102762.50;4948237;28;118911;-63
2021/05/30 05:27:33;;;;;;;28.98;19.90;;;;;;;13.24;58.13;102761.50;4948874;28;124756;-64
2021/05/30 05:30:01;;;;;;;29.83;20.25;;;;;;;13.28;58.15;102756.97;4949850;28;123663;-64
2021/05/30 05:32:28;;;;;;;31.00;19.23;;;;;;;13.32;58.01;102752.47;4948562;28;119311;-64
2021/05/30 05:34:55;;;;;;;32.42;19.92;;;;;;;13.38;58.06;102758.50;4948736;28;117069;-63
2021/05/30 05:37:22;;;;;;;29.83;19.95;;;;;;;13.42;58.08;102760.16;4947818;28;124176;-63
2021/05/30 05:39:49;;;;;;;28.45;19.15;;;;;;;13.47;58.07;102756.50;4949702;28;124459;-64
2021/05/30 05:42:16;;;;;;;26.65;19.50;;;;;;;13.53;58.00;102751.03;4947297;28;119393;-63
2021/05/30 05:44:43;;;;;;;27.52;19.60;;;;;;;13.59;57.92;102750.84;4948777;28;117877;-63
2021/05/30 05:47:10;;;;;;;30.77;19.98;;;;;;;13.66;58.07;102751.56;4947138;28;123081;-64
2021/05/30 05:49:37;;;;;;;30.20;19.73;;;;;;;13.70;58.02;102748.78;4934081;28;122300;-64
2021/05/30 05:52:05;;;;;;;29.27;20.48;;;;;;;13.76;58.14;102753.91;4952581;28;117807;-63
2021/05/30 05:54:49;;;;;;;28.33;19.63;;;;;;;13.81;58.02;102752.00;4951524;28;118859;-64
2021/05/30 05:57:17;;;;;;;28.90;19.55;;;;;;;13.88;58.13;102757.16;4950687;28;124038;-64
2021/05/30 05:59:44;;;;;;;30.55;20.73;;;;;;;13.93;58.09;102749.91;4946214;28;123997;-64
2021/05/30 06:02:12;;;;;;;29.45;20.35;;;;;;;14.01;58.28;102758.56;4949064;28;120612;-64
2021/05/30 06:04:41;;;;;;;29.00;20.75;;;;;;;14.09;58.10;102761.88;4952765;28;119790;-64
2021/05/30 06:07:09;;;;;;;27.50;20.55;;;;;;;14.18;58.06;102766.06;4951233;28;124278;-64
2021/05/30 06:09:36;;;;;;;27.95;20.17;;;;;;;14.28;58.07;102761.31;4951811;28;123948;-63
2021/05/30 06:12:03;;;;;;;29.05;20.05;;;;;;;14.39;58.04;102759.19;4949116;28;119430;-64
2021/05/30 06:14:31;;;;;;;28.75;20.02;;;;;;;14.51;57.90;102766.84;4951561;28;118868;-63
2021/05/30 06:16:58;;;;;;;28.77;20.15;;;;;;;14.64;57.92;102763.84;4950363;28;123485;-63
2021/05/30 06:19:26;;;;;;;29.75;20.50;;;;;;;14.77;57.68;102762.53;4954655;28;123243;-63
2021/05/30 06:21:58;;;;;;;26.45;19.90;;;;;;;14.88;57.54;102763.06;4954363;28;120331;-63
2021/05/30 06:24:25;;;;;;;26.80;19.60;;;;;;;15.01;57.47;102762.66;4963734;28;118396;-63
2021/05/30 06:26:56;;;;;;;27.67;20.02;;;;;;;15.13;57.29;102762.25;4958869;28;124924;-63
2021/05/30 06:29:23;;;;;;;25.13;18.90;;;;;;;15.24;56.93;102765.44;4951201;28;123805;-65
2021/05/30 06:31:50;;;;;;;27.30;19.88;;;;;;;15.36;57.01;102770.34;4951365;28;119419;-64
2021/05/30 06:34:23;;;;;;;25.27;19.00;;;;;;;15.50;56.76;102761.88;4949770;28;119026;-64
2021/05/30 06:36:50;;;;;;;27.63;20.13;;;;;;;15.66;56.85;102767.53;4948874;28;124665;-64
2021/05/30 06:39:17;;;;;;;24.20;19.05;;;;;;;15.81;56.81;102765.28;4949572;28;124222;-63
2021/05/30 06:41:44;;;;;;;24.58;19.33;;;;;;;15.96;56.75;102764.72;4951749;28;119311;-63
2021/05/30 06:44:12;;;;;;;26.73;19.40;;;;;;;16.14;56.31;102764.03;4952295;28;119084;-65
2021/05/30 06:46:39;;;;;;;24.30;18.75;;;;;;;16.33;56.05;102763.31;4952111;28;124778;-64
2021/05/30 06:49:06;;;;;;;26.67;18.42;;;;;;;16.49;56.06;102764.47;4951945;28;123869;-64
2021/05/30 06:51:34;;;;;;;24.33;18.55;;;;;;;16.66;55.57;102770.94;4955234;28;120751;-64
2021/05/30 06:54:04;;;;;;;25.50;19.20;;;;;;;16.79;55.12;102777.56;4960365;28;120700;-64
2021/05/30 06:56:31;;;;;;;25.73;19.08;;;;;;;16.93;54.95;102769.88;4958739;28;124212;-64
2021/05/30 06:58:59;;;;;;;24.35;18.30;;;;;;;17.08;54.71;102772.84;4952833;28;124264;-64
2021/05/30 07:01:27;;;;;;;24.63;19.63;;;;;;;17.22;54.26;102759.75;4956417;28;119051;-62
2021/05/30 07:03:54;;;;;;;22.42;18.73;;;;;;;17.35;54.18;102765.47;4947026;28;119973;-62
2021/05/30 07:06:24;;;;;;;22.60;17.88;;;;;;;17.51;54.44;102762.97;4947975;28;124562;-62
2021/05/30 07:08:51;;;;;;;27.48;18.85;;;;;;;17.70;53.78;102760.34;4948074;28;124066;-62
2021/05/30 07:11:18;;;;;;;24.00;18.20;;;;;;;17.84;53.29;102762.44;4934195;28;117808;-62
2021/05/30 07:13:45;;;;;;;23.55;18.55;;;;;;;17.96;53.41;102759.22;4948792;28;119350;-63
2021/05/30 07:16:12;;;;;;;25.52;19.00;;;;;;;18.09;53.51;102757.72;4946948;28;124995;-63
2021/05/30 07:18:41;;;;;;;22.20;17.83;;;;;;;18.24;52.98;102760.63;4940917;28;123903;-63
2021/05/30 07:21:08;;;;;;;23.92;17.88;;;;;;;18.39;52.78;102754.53;4950023;28;119264;-63
2021/05/30 07:23:36;;;;;;;25.50;18.77;;;;;;;18.52;52.45;102759.34;4951028;28;118936;-63
2021/05/30 07:26:03;;;;;;;21.10;18.25;;;;;;;18.65;52.17;102758.66;4949540;28;124337;-63
2021/05/30 07:28:31;;;;;;;22.35;18.27;;;;;;;18.77;52.17;102762.53;4962413;28;123962;-63
2021/05/30 07:30:58;;;;;;;22.83;18.30;;;;;;;18.92;51.94;102768.16;4956126;28;119201;-63
2021/05/30 07:33:25;;;;;;;21.80;17.55;;;;;;;19.05;51.46;102758.53;4955926;28;119324;-63
2021/05/30 07:35:52;;;;;;;22.90;18.20;;;;;;;19.16;51.56;102769.59;4955617;28;124981;-63
2021/05/30 07:38:21;;;;;;;20.90;17.08;;;;;;;19.26;50.75;102757.44;4968270;28;123965;-63
2021/05/30 07:40:48;;;;;;;21.17;17.70;;;;;;;19.35;50.37;102771.34;4950821;28;119456;-63
2021/05/30 07:43:15;;;;;;;21.80;17.23;;;;;;;19.38;50.16;102773.88;4949214;28;119926;-62
2021/05/30 07:45:42;;;;;;;20.45;16.73;;;;;;;19.42;50.10;102764.69;4949356;28;124194;-63
2021/05/30 07:48:09;;;;;;;21.05;16.75;;;;;;;19.50;49.60;102765.19;4951552;28;124618;-63
2021/05/30 07:50:36;;;;;;;22.20;17.15;;;;;;;19.55;49.45;102768.50;4950274;28;120229;-63
2021/05/30 07:53:04;;;;;;;20.88;16.63;;;;;;;19.60;48.96;102766.44;4951388;28;119736;-64
2021/05/30 07:55:31;;;;;;;18.30;15.52;;;;;;;19.63;49.10;102771.66;4951802;28;124490;-64
2021/05/30 07:57:58;;;;;;;20.42;15.73;;;;;;;19.70;48.82;102771.31;4951133;28;123808;-63
2021/05/30 08:00:25;;;;;;;18.60;14.68;;;;;;;19.78;48.71;102764.63;4945672;28;119242;-65
2021/05/30 08:02:53;;;;;;;18.23;14.88;;;;;;;19.90;48.91;102763.09;4967127;23;119735;-66
2021/05/30 08:05:21;;;;;;;18.15;14.75;;;;;;;20.05;48.75;102771.28;4966832;28;123165;-66
2021/05/30 08:07:50;;;;;;;19.63;14.43;;;;;;;20.15;47.17;102764.44;4950589;28;124749;-66
2021/05/30 08:10:21;;;;;;;19.95;13.88;;;;;;;20.21;48.06;102769.47;4951836;28;119330;-66
2021/05/30 08:12:49;;;;;;;17.52;14.00;;;;;;;20.35;47.58;102769.59;4963044;28;119801;-66
2021/05/30 08:15:21;;;;;;;21.15;14.35;;;;;;;20.49;47.42;102770.63;4966120;28;124992;-66
2021/05/30 08:17:48;;;;;;;21.88;13.40;;;;;;;20.56;46.88;102761.28;4953688;28;123904;-66
2021/05/30 08:20:22;;;;;;;17.88;12.90;;;;;;;20.65;46.53;102762.63;4955851;28;119620;-66
2021/05/30 08:22:49;;;;;;;16.73;12.27;;;;;;;20.75;46.67;102761.13;4952424;28;119468;-66
2021/05/30 08:25:19;;;;;;;19.38;13.40;;;;;;;20.84;45.76;102754.34;4950527;28;124819;-67
2021/05/30 08:27:47;;;;;;;18.27;13.05;;;;;;;20.87;45.47;102754.13;4946720;28;123655;-66
2021/05/30 08:30:16;;;;;;;16.05;12.63;;;;;;;20.92;46.09;102752.06;4950033;28;120412;-66
2021/05/30 08:32:44;;;;;;;17.73;13.30;;;;;;;20.99;45.71;102753.44;4946052;28;118859;-66
2021/05/30 08:35:12;;;;;;;14.75;12.50;;;;;;;21.06;45.31;102749.44;4943722;28;124364;-67
2021/05/30 08:37:43;;;;;;;16.08;12.15;;;;;;;21.16;46.03;102749.75;4950443;28;123992;-67
2021/05/30 08:40:12;;;;;;;16.63;11.88;;;;;;;21.28;44.70;102749.00;4951085;28;119323;-67
2021/05/30 08:42:40;;;;;;;16.60;12.55;;;;;;;21.34;44.63;102743.25;4935333;28;119222;-65
2021/05/30 08:45:08;;;;;;;14.90;12.10;;;;;;;21.40;44.22;102747.41;4948686;28;124148;-65
2021/05/30 08:47:35;;;;;;;13.68;11.52;;;;;;;21.42;43.60;102742.78;4949758;28;124158;-65
2021/05/30 08:50:04;;;;;;;15.98;11.77;;;;;;;21.44;43.45;102751.69;4948354;28;119459;-65
2021/05/30 08:52:33;;;;;;;14.25;11.40;;;;;;;21.46;43.62;102747.06;4947981;28;119279;-65
2021/05/30 08:55:03;;;;;;;14.10;10.18;;;;;;;21.52;43.47;102746.69;4949021;28;123691;-65
2021/05/30 08:57:30;;;;;;;13.88;10.50;;;;;;;21.58;43.10;102743.59;4948890;28;124192;-65
2021/05/30 08:59:58;;;;;;;14.38;11.00;;;;;;;21.66;43.42;102743.16;4949332;28;119375;-65
2021/05/30 09:02:25;;;;;;;12.13;10.07;;;;;;;21.74;43.32;102739.97;4965222;28;118299;-65
2021/05/30 09:04:55;;;;;;;11.13;7.88;;;;;;;21.85;43.20;102739.28;4947788;28;124025;-65
2021/05/30 09:07:41;;;;;;;11.30;8.60;;;;;;;21.93;42.43;102740.53;4949216;28;124200;-65
2021/05/30 09:10:12;;;;;;;;;;;;;;;21.96;42.50;102740.38;4949420;28;119567;-64
2021/05/30 09:13:17;;;;;;;10.68;8.57;;;;;;;22.05;42.51;102738.88;4950663;28;119140;-65
2021/05/30 09:16:07;;;;;;;12.80;8.37;;;;;;;22.16;42.38;102738.22;4948826;28;124417;-65
2021/05/30 09:18:34;;;;;;;7.30;6.15;;;;;;;22.28;41.81;102733.88;4947210;28;124898;-65
2021/05/30 09:21:12;;;;;;;9.02;5.00;;;;;;;22.37;40.29;102737.81;4948279;28;120405;-65
2021/05/30 09:23:46;;;;;;;7.75;5.97;;;;;;;22.43;39.81;102730.19;4948197;28;120006;-65
2021/05/30 09:26:22;;;;;;;9.20;6.63;;;;;;;22.47;39.25;102728.16;4949280;28;124326;-65
2021/05/30 09:29:09;;;;;;;8.57;6.60;;;;;;;22.46;38.87;102734.53;4946776;28;123997;-65
2021/05/30 09:31:57;;;;;;;7.38;5.32;;;;;;;22.47;38.91;102729.03;4947808;28;120085;-65
2021/05/30 09:34:31;;;;;;;6.20;5.45;;;;;;;22.54;38.66;102726.78;4950112;28;119296;-65
2021/05/30 09:36:59;;;;;;;5.47;4.95;;;;;;;22.61;38.66;102730.81;4947806;28;124359;-65
2021/05/30 09:39:37;;;;;;;7.10;4.97;;;;;;;22.70;37.96;102724.81;4948037;28;124025;-65
2021/05/30 09:42:26;;;;;;;7.82;5.20;;;;;;;22.79;38.20;102717.03;4944816;28;119598;-65
2021/05/30 09:45:03;;;;;;;7.15;4.70;;;;;;;22.85;36.89;102724.72;4962476;28;119176;-65
2021/05/30 09:47:31;;;;;;;7.05;5.00;;;;;;;22.88;36.23;102717.28;4948246;28;124392;-65
2021/05/30 09:49:59;;;;;;;6.07;4.80;;;;;;;22.91;36.93;102716.22;4963290;28;123833;-65
2021/05/30 09:52:53;;;;;;;6.47;5.55;;;;;;;22.95;36.90;102715.03;4945860;28;119472;-65
2021/05/30 09:55:26;;;;;;;6.32;5.22;;;;;;;23.00;37.45;102715.59;4948828;28;119259;-65
2021/05/30 09:58:14;;;;;;;3.20;2.65;;;;;;;23.10;36.44;102711.31;4949207;28;124752;-65
2021/05/30 10:00:44;;;;;;;4.72;2.95;;;;;;;23.21;35.89;102707.88;4935270;28;122956;-65
2021/05/30 10:03:11;;;;;;;3.65;2.88;;;;;;;23.31;36.73;102702.69;4945030;28;119385;-65
2021/05/30 10:05:38;;;;;;;5.28;3.97;;;;;;;23.43;36.35;102709.97;4948524;28;119226;-65
2021/05/30 10:08:05;;;;;;;4.85;3.72;;;;;;;23.58;35.64;102704.44;4948444;28;124345;-65
2021/05/30 10:10:33;;;;;;;3.90;3.40;;;;;;;23.67;34.57;102709.19;4946829;28;124569;-65
2021/05/30 10:13:02;;;;;;;4.28;3.67;;;;;;;23.74;34.68;102699.66;4931844;28;118575;-65
2021/05/30 10:15:30;;;;;;;4.47;3.03;;;;;;;23.78;34.31;102701.16;4947167;28;120603;-65
2021/05/30 10:18:27;;;;;;;3.92;2.50;;;;;;;23.80;34.27;102696.53;4948694;28;124152;-65
2021/05/30 10:20:56;;;;;;;3.10;2.78;;;;;;;23.85;33.65;102697.09;4943639;28;124000;-64
2021/05/30 10:23:23;;;;;;;3.75;2.90;;;;;;;23.89;33.28;102700.44;4946924;28;119568;-68
2021/05/30 10:25:51;;;;;;;5.68;3.83;;;;;;;23.93;33.28;102695.66;4948541;28;117862;-68
2021/05/30 10:28:51;;;;;;;4.33;3.20;;;;;;;23.95;33.26;102691.00;4944978;28;124132;-68
2021/05/30 10:31:23;;;;;;;4.45;3.20;;;;;;;24.00;32.71;102694.25;4946019;28;123690;-68
2021/05/30 10:34:11;;;;;;;6.22;4.20;;;;;;;24.04;33.15;102684.94;4946928;28;119593;-68
2021/05/30 10:36:44;;;;;;;6.32;3.88;;;;;;;24.11;33.45;102691.63;4949450;28;118888;-68
2021/05/30 10:39:29;;;;;;;4.47;3.10;;;;;;;24.20;33.86;102696.34;4949619;28;124625;-67
2021/05/30 10:42:09;;;;;;;3.47;2.83;;;;;;;24.29;34.09;102695.66;4947332;28;123881;-68
2021/05/30 10:44:56;;;;;;;3.67;3.03;;;;;;;24.35;32.60;102688.06;4963443;28;119184;-68
2021/05/30 10:47:42;;;;;;;3.80;3.20;;;;;;;24.36;32.26;102689.81;4952249;28;119184;-68
2021/05/30 10:50:12;;;;;;;6.72;3.78;;;;;;;24.42;33.08;102697.47;4947493;28;124872;-68
2021/05/30 10:52:50;;;;;;;6.50;4.20;;;;;;;24.51;32.58;102688.66;4962601;28;123171;-69
2021/05/30 10:55:28;;;;;;;4.90;3.63;;;;;;;24.61;32.60;102689.72;4951795;28;119643;-68
2021/05/30 10:57:56;;;;;;;4.93;3.20;;;;;;;24.72;32.68;102685.34;4961759;28;118127;-68
2021/05/30 11:00:26;;;;;;;4.30;3.15;;;;;;;24.81;32.42;102679.22;4949595;28;124532;-69
2021/05/30 11:03:03;;;;;;;5.22;2.95;;;;;;;24.87;31.86;102673.31;4951556;28;124592;-69
2021/05/30 11:05:48;;;;;;;4.85;2.92;;;;;;;24.92;32.17;102670.25;4948762;28;120292;-69
2021/05/30 11:08:31;;;;;;;3.70;2.50;;;;;;;25.00;32.51;102674.09;4962058;28;120402;-69
2021/05/30 11:11:26;;;;;;;4.43;2.55;;;;;;;25.08;31.58;102664.50;4949225;28;125032;-69
2021/05/30 11:13:59;;;;;;;4.80;2.78;;;;;;;25.15;30.58;102660.34;4949155;28;123519;-68
2021/05/30 11:16:31;;;;;;;3.20;2.33;;;;;;;25.21;30.88;102659.84;4948860;28;118947;-69